sensor_id;sensor_type;location;lat;lon;timestamp;pressure;altitude;pressure_sealevel;temperature;humidity
43818;BME280;29868;47.360;18.984;2023-03-14T16:39:05;98883.91;;;15.07;95.68
43818;BME280;29868;47.360;18.984;2023-03-14T16:41:30;98893.00;;;14.94;99.26
43818;BME280;29868;47.360;18.984;2023-03-14T16:43:57;98900.38;;;14.76;100.00
43818;BME280;29868;47.360;18.984;2023-03-14T16:46:22;98898.78;;;14.71;100.00
43818;BME280;29868;47.360;18.984;2023-03-14T16:48:49;98902.78;;;14.48;100.00
43818;BME280;29868;47.360;18.984;2023-03-14T16:51:15;98909.97;;;14.39;100.00
43818;BME280;29868;47.360;18.984;2023-03-14T16:53:41;98904.28;;;14.21;100.00
43818;BME280;29868;47.360;18.984;2023-03-14T16:56:07;98913.19;;;14.11;100.00
43818;BME280;29868;47.360;18.984;2023-03-14T16:58:33;98910.75;;;14.03;100.00
43818;BME280;29868;47.360;18.984;2023-03-14T17:00:59;98915.31;;;13.94;100.00
43818;BME280;29868;47.360;18.984;2023-03-14T17:03:33;98923.38;;;13.83;100.00
43818;BME280;29868;47.360;18.984;2023-03-14T17:05:59;98919.31;;;13.68;100.00
43818;BME280;29868;47.360;18.984;2023-03-14T17:08:24;98915.06;;;13.64;100.00
43818;BME280;29868;47.360;18.984;2023-03-14T17:10:50;98917.19;;;13.44;100.00
43818;BME280;29868;47.360;18.984;2023-03-14T17:13:15;98926.94;;;13.32;100.00
43818;BME280;29868;47.360;18.984;2023-03-14T17:15:45;98912.63;;;13.07;100.00
43818;BME280;29868;47.360;18.984;2023-03-14T17:18:11;98924.72;;;13.09;100.00
43818;BME280;29868;47.360;18.984;2023-03-14T17:20:37;98918.75;;;13.04;100.00
43818;BME280;29868;47.360;18.984;2023-03-14T17:23:02;98922.25;;;13.02;100.00
43818;BME280;29868;47.360;18.984;2023-03-14T17:25:28;98924.09;;;12.95;100.00
43818;BME280;29868;47.360;18.984;2023-03-14T17:27:53;98921.63;;;12.89;100.00
43818;BME280;29868;47.360;18.984;2023-03-14T17:30:18;98930.38;;;12.83;100.00
43818;BME280;29868;47.360;18.984;2023-03-14T17:32:44;98924.44;;;12.75;100.00
43818;BME280;29868;47.360;18.984;2023-03-14T17:35:09;98923.59;;;12.75;100.00
43818;BME280;29868;47.360;18.984;2023-03-14T17:37:35;98932.41;;;12.66;100.00
43818;BME280;29868;47.360;18.984;2023-03-14T17:40:00;98934.94;;;12.71;100.00
43818;BME280;29868;47.360;18.984;2023-03-14T17:42:28;98936.81;;;12.62;100.00
43818;BME280;29868;47.360;18.984;2023-03-14T17:44:55;98940.28;;;12.63;100.00
43818;BME280;29868;47.360;18.984;2023-03-14T17:47:20;98942.03;;;12.61;100.00
43818;BME280;29868;47.360;18.984;2023-03-14T17:49:46;98948.13;;;12.61;100.00
43818;BME280;29868;47.360;18.984;2023-03-14T17:52:12;98947.28;;;12.59;100.00
43818;BME280;29868;47.360;18.984;2023-03-14T17:54:37;98952.56;;;12.55;100.00
43818;BME280;29868;47.360;18.984;2023-03-14T17:57:03;98952.50;;;12.58;100.00
43818;BME280;29868;47.360;18.984;2023-03-14T17:59:28;98940.47;;;12.51;100.00
43818;BME280;29868;47.360;18.984;2023-03-14T18:01:54;98938.78;;;12.47;100.00
43818;BME280;29868;47.360;18.984;2023-03-14T18:04:19;98945.63;;;12.52;100.00
43818;BME280;29868;47.360;18.984;2023-03-14T18:06:45;98946.53;;;12.50;100.00
43818;BME280;29868;47.360;18.984;2023-03-14T18:09:10;98946.56;;;12.48;100.00
43818;BME280;29868;47.360;18.984;2023-03-14T18:11:36;98944.06;;;12.40;100.00
43818;BME280;29868;47.360;18.984;2023-03-14T18:14:01;98945.75;;;12.45;100.00
43818;BME280;29868;47.360;18.984;2023-03-14T18:16:29;98945.81;;;12.38;100.00
43818;BME280;29868;47.360;18.984;2023-03-14T18:18:55;98946.72;;;12.39;100.00
43818;BME280;29868;47.360;18.984;2023-03-14T18:21:24;98939.84;;;12.33;100.00
43818;BME280;29868;47.360;18.984;2023-03-14T18:23:50;98941.63;;;12.31;100.00
43818;BME280;29868;47.360;18.984;2023-03-14T18:26:15;98938.16;;;12.29;100.00
43818;BME280;29868;47.360;18.984;2023-03-14T18:28:41;98936.59;;;12.17;100.00
43818;BME280;29868;47.360;18.984;2023-03-14T18:31:08;98946.00;;;12.26;100.00
43818;BME280;29868;47.360;18.984;2023-03-14T18:33:34;98941.69;;;12.25;100.00
43818;BME280;29868;47.360;18.984;2023-03-14T18:36:01;98941.78;;;12.17;100.00
43818;BME280;29868;47.360;18.984;2023-03-14T18:38:27;98937.47;;;12.15;100.00
43818;BME280;29868;47.360;18.984;2023-03-14T18:40:52;98925.44;;;12.08;100.00
43818;BME280;29868;47.360;18.984;2023-03-14T18:43:18;98917.50;;;12.15;100.00
43818;BME280;29868;47.360;18.984;2023-03-14T18:45:43;98928.88;;;12.10;100.00
43818;BME280;29868;47.360;18.984;2023-03-14T18:48:09;98934.06;;;12.13;100.00
43818;BME280;29868;47.360;18.984;2023-03-14T18:50:34;98925.50;;;12.05;100.00
43818;BME280;29868;47.360;18.984;2023-03-14T18:52:59;98941.16;;;12.02;100.00
43818;BME280;29868;47.360;18.984;2023-03-14T18:55:26;98936.66;;;12.11;100.00
43818;BME280;29868;47.360;18.984;2023-03-14T18:57:51;98939.34;;;12.07;100.00
43818;BME280;29868;47.360;18.984;2023-03-14T19:00:17;98930.78;;;11.99;100.00
43818;BME280;29868;47.360;18.984;2023-03-14T19:02:44;98932.44;;;12.03;100.00
43818;BME280;29868;47.360;18.984;2023-03-14T19:05:09;98923.84;;;11.96;100.00
43818;BME280;29868;47.360;18.984;2023-03-14T19:07:37;98924.81;;;11.90;100.00
43818;BME280;29868;47.360;18.984;2023-03-14T19:10:03;98922.16;;;11.93;100.00
43818;BME280;29868;47.360;18.984;2023-03-14T19:12:29;98923.94;;;11.88;100.00
43818;BME280;29868;47.360;18.984;2023-03-14T19:14:55;98917.00;;;11.89;100.00
43818;BME280;29868;47.360;18.984;2023-03-14T19:17:21;98924.81;;;11.89;100.00
43818;BME280;29868;47.360;18.984;2023-03-14T19:19:46;98923.13;;;11.82;100.00
43818;BME280;29868;47.360;18.984;2023-03-14T19:22:12;98918.78;;;11.85;100.00
43818;BME280;29868;47.360;18.984;2023-03-14T19:24:37;98923.16;;;11.83;100.00
43818;BME280;29868;47.360;18.984;2023-03-14T19:27:03;98926.66;;;11.78;100.00
43818;BME280;29868;47.360;18.984;2023-03-14T19:29:28;98921.50;;;11.75;100.00
43818;BME280;29868;47.360;18.984;2023-03-14T19:31:54;98927.56;;;11.74;100.00
43818;BME280;29868;47.360;18.984;2023-03-14T19:34:20;98933.66;;;11.73;100.00
43818;BME280;29868;47.360;18.984;2023-03-14T19:36:47;98927.47;;;11.81;100.00
43818;BME280;29868;47.360;18.984;2023-03-14T19:39:12;98927.56;;;11.74;100.00
43818;BME280;29868;47.360;18.984;2023-03-14T19:41:37;98936.38;;;11.62;100.00
43818;BME280;29868;47.360;18.984;2023-03-14T19:44:03;98932.03;;;11.64;100.00
43818;BME280;29868;47.360;18.984;2023-03-14T19:46:28;98932.91;;;11.61;100.00
43818;BME280;29868;47.360;18.984;2023-03-14T19:48:57;98929.28;;;11.76;100.00
43818;BME280;29868;47.360;18.984;2023-03-14T19:51:22;98920.69;;;11.71;100.00
43818;BME280;29868;47.360;18.984;2023-03-14T19:53:48;98914.78;;;11.57;100.00
43818;BME280;29868;47.360;18.984;2023-03-14T19:56:13;98915.69;;;11.53;100.00
43818;BME280;29868;47.360;18.984;2023-03-14T19:58:39;98930.16;;;11.74;100.00
43818;BME280;29868;47.360;18.984;2023-03-14T20:01:06;98932.88;;;11.64;100.00
43818;BME280;29868;47.360;18.984;2023-03-14T20:03:33;98932.09;;;11.58;100.00
43818;BME280;29868;47.360;18.984;2023-03-14T20:06:09;98932.13;;;11.56;100.00
43818;BME280;29868;47.360;18.984;2023-03-14T20:08:36;98930.44;;;11.52;100.00
43818;BME280;29868;47.360;18.984;2023-03-14T20:11:06;98934.63;;;11.64;100.00
43818;BME280;29868;47.360;18.984;2023-03-14T20:13:32;98943.25;;;11.66;100.00
43818;BME280;29868;47.360;18.984;2023-03-14T20:15:58;98938.91;;;11.66;100.00
43818;BME280;29868;47.360;18.984;2023-03-14T20:18:24;98946.81;;;11.60;100.00
43818;BME280;29868;47.360;18.984;2023-03-14T20:20:49;98945.94;;;11.60;100.00
43818;BME280;29868;47.360;18.984;2023-03-14T20:23:15;98961.50;;;11.64;100.00
43818;BME280;29868;47.360;18.984;2023-03-14T20:25:41;98958.25;;;11.45;100.00
43818;BME280;29868;47.360;18.984;2023-03-14T20:28:07;98952.97;;;11.53;100.00
43818;BME280;29868;47.360;18.984;2023-03-14T20:30:32;98961.66;;;11.48;100.00
43818;BME280;29868;47.360;18.984;2023-03-14T20:32:58;98948.72;;;11.44;100.00
43818;BME280;29868;47.360;18.984;2023-03-14T20:35:23;98959.16;;;11.41;100.00
43818;BME280;29868;47.360;18.984;2023-03-14T20:37:52;98966.94;;;11.41;100.00
43818;BME280;29868;47.360;18.984;2023-03-14T20:40:20;98978.28;;;11.34;100.00
43818;BME280;29868;47.360;18.984;2023-03-14T20:42:48;98974.91;;;11.26;100.00
43818;BME280;29868;47.360;18.984;2023-03-14T20:45:14;98981.84;;;11.21;100.00
43818;BME280;29868;47.360;18.984;2023-03-14T20:47:39;98981.97;;;11.10;100.00
43818;BME280;29868;47.360;18.984;2023-03-14T20:50:05;98976.78;;;11.09;100.00
43818;BME280;29868;47.360;18.984;2023-03-14T20:52:31;98974.13;;;11.13;100.00
43818;BME280;29868;47.360;18.984;2023-03-14T20:54:56;98980.22;;;11.11;100.00
43818;BME280;29868;47.360;18.984;2023-03-14T20:57:22;98983.69;;;11.10;100.00
43818;BME280;29868;47.360;18.984;2023-03-14T20:59:47;98973.28;;;11.10;100.00
43818;BME280;29868;47.360;18.984;2023-03-14T21:02:12;98988.09;;;11.03;100.00
43818;BME280;29868;47.360;18.984;2023-03-14T21:04:39;98994.16;;;11.04;100.00
43818;BME280;29868;47.360;18.984;2023-03-14T21:07:04;98996.78;;;10.98;100.00
43818;BME280;29868;47.360;18.984;2023-03-14T21:09:30;98991.56;;;11.01;100.00
43818;BME280;29868;47.360;18.984;2023-03-14T21:11:55;98989.00;;;10.98;100.00
43818;BME280;29868;47.360;18.984;2023-03-14T21:14:20;98983.81;;;10.94;100.00
43818;BME280;29868;47.360;18.984;2023-03-14T21:16:47;98992.50;;;10.92;100.00
43818;BME280;29868;47.360;18.984;2023-03-14T21:19:13;98992.56;;;10.87;100.00
43818;BME280;29868;47.360;18.984;2023-03-14T21:21:38;98999.44;;;10.91;100.00
43818;BME280;29868;47.360;18.984;2023-03-14T21:24:04;99002.88;;;10.96;100.00
43818;BME280;29868;47.360;18.984;2023-03-14T21:26:30;99013.28;;;10.93;100.00
43818;BME280;29868;47.360;18.984;2023-03-14T21:28:57;99009.00;;;10.86;100.00
43818;BME280;29868;47.360;18.984;2023-03-14T21:31:22;99002.97;;;10.83;100.00
43818;BME280;29868;47.360;18.984;2023-03-14T21:33:48;99009.88;;;10.82;100.00
43818;BME280;29868;47.360;18.984;2023-03-14T21:36:13;99008.16;;;10.87;100.00
43818;BME280;29868;47.360;18.984;2023-03-14T21:38:39;99020.22;;;10.91;100.00
43818;BME280;29868;47.360;18.984;2023-03-14T21:41:05;99013.28;;;10.90;100.00
43818;BME280;29868;47.360;18.984;2023-03-14T21:43:32;99020.25;;;10.88;100.00
43818;BME280;29868;47.360;18.984;2023-03-14T21:45:58;99017.56;;;10.98;100.00
43818;BME280;29868;47.360;18.984;2023-03-14T21:48:23;99021.91;;;10.99;100.00
43818;BME280;29868;47.360;18.984;2023-03-14T21:50:49;99022.78;;;10.99;100.00
43818;BME280;29868;47.360;18.984;2023-03-14T21:53:15;99015.91;;;10.92;100.00
43818;BME280;29868;47.360;18.984;2023-03-14T21:55:41;99027.19;;;10.86;100.00
43818;BME280;29868;47.360;18.984;2023-03-14T21:58:08;99029.78;;;10.88;100.00
43818;BME280;29868;47.360;18.984;2023-03-14T22:00:41;99028.03;;;10.88;100.00
43818;BME280;29868;47.360;18.984;2023-03-14T22:03:14;99037.53;;;10.91;100.00
43818;BME280;29868;47.360;18.984;2023-03-14T22:05:43;99038.38;;;10.94;100.00
43818;BME280;29868;47.360;18.984;2023-03-14T22:08:09;99030.56;;;10.98;100.00
43818;BME280;29868;47.360;18.984;2023-03-14T22:10:41;99034.06;;;10.90;100.00
43818;BME280;29868;47.360;18.984;2023-03-14T22:13:07;99037.56;;;10.89;100.00
43818;BME280;29868;47.360;18.984;2023-03-14T22:15:33;99028.91;;;10.87;100.00
43818;BME280;29868;47.360;18.984;2023-03-14T22:17:58;99035.84;;;10.88;100.00
43818;BME280;29868;47.360;18.984;2023-03-14T22:20:24;99041.88;;;10.90;100.00
43818;BME280;29868;47.360;18.984;2023-03-14T22:22:49;99047.13;;;10.84;100.00
43818;BME280;29868;47.360;18.984;2023-03-14T22:25:14;99057.50;;;10.83;100.00
43818;BME280;29868;47.360;18.984;2023-03-14T22:27:40;99047.97;;;10.83;100.00
43818;BME280;29868;47.360;18.984;2023-03-14T22:30:06;99053.22;;;10.77;100.00
43818;BME280;29868;47.360;18.984;2023-03-14T22:32:31;99054.91;;;10.83;100.00
43818;BME280;29868;47.360;18.984;2023-03-14T22:34:56;99054.94;;;10.81;100.00
43818;BME280;29868;47.360;18.984;2023-03-14T22:37:22;99060.13;;;10.81;100.00
43818;BME280;29868;47.360;18.984;2023-03-14T22:39:49;99063.53;;;10.86;100.00
43818;BME280;29868;47.360;18.984;2023-03-14T22:42:15;99060.13;;;10.84;100.00
43818;BME280;29868;47.360;18.984;2023-03-14T22:44:40;99062.69;;;10.86;100.00
43818;BME280;29868;47.360;18.984;2023-03-14T22:47:06;99062.66;;;10.89;100.00
43818;BME280;29868;47.360;18.984;2023-03-14T22:49:31;99063.50;;;10.91;100.00
43818;BME280;29868;47.360;18.984;2023-03-14T22:51:57;99067.84;;;10.92;100.00
43818;BME280;29868;47.360;18.984;2023-03-14T22:54:22;99067.88;;;10.86;100.00
43818;BME280;29868;47.360;18.984;2023-03-14T22:56:47;99064.44;;;10.82;100.00
43818;BME280;29868;47.360;18.984;2023-03-14T22:59:13;99053.22;;;10.77;100.00
43818;BME280;29868;47.360;18.984;2023-03-14T23:01:39;99060.16;;;10.80;100.00
43818;BME280;29868;47.360;18.984;2023-03-14T23:04:05;99063.63;;;10.74;100.00
43818;BME280;29868;47.360;18.984;2023-03-14T23:06:30;99072.31;;;10.73;100.00
43818;BME280;29868;47.360;18.984;2023-03-14T23:08:56;99081.84;;;10.63;100.00
43818;BME280;29868;47.360;18.984;2023-03-14T23:11:21;99076.72;;;10.57;100.00
43818;BME280;29868;47.360;18.984;2023-03-14T23:13:50;99081.00;;;10.60;100.00
43818;BME280;29868;47.360;18.984;2023-03-14T23:16:16;99074.09;;;10.56;100.00
43818;BME280;29868;47.360;18.984;2023-03-14T23:18:42;99087.97;;;10.52;100.00
43818;BME280;29868;47.360;18.984;2023-03-14T23:21:12;99084.50;;;10.56;100.00
43818;BME280;29868;47.360;18.984;2023-03-14T23:23:38;99082.78;;;10.52;100.00
43818;BME280;29868;47.360;18.984;2023-03-14T23:26:07;99075.00;;;10.48;100.00
43818;BME280;29868;47.360;18.984;2023-03-14T23:28:33;99069.88;;;10.39;100.00
43818;BME280;29868;47.360;18.984;2023-03-14T23:30:58;99080.22;;;10.44;100.00
43818;BME280;29868;47.360;18.984;2023-03-14T23:33:25;99081.13;;;10.38;100.00
43818;BME280;29868;47.360;18.984;2023-03-14T23:35:51;99087.16;;;10.37;100.00
43818;BME280;29868;47.360;18.984;2023-03-14T23:38:19;99101.03;;;10.35;100.00
43818;BME280;29868;47.360;18.984;2023-03-14T23:40:45;99105.38;;;10.34;100.00
43818;BME280;29868;47.360;18.984;2023-03-14T23:43:11;99115.75;;;10.31;100.00
43818;BME280;29868;47.360;18.984;2023-03-14T23:45:36;99114.03;;;10.26;100.00
43818;BME280;29868;47.360;18.984;2023-03-14T23:48:02;99119.22;;;10.19;100.00
43818;BME280;29868;47.360;18.984;2023-03-14T23:50:28;99123.53;;;10.22;100.00
43818;BME280;29868;47.360;18.984;2023-03-14T23:52:53;99124.44;;;10.06;100.00
43818;BME280;29868;47.360;18.984;2023-03-14T23:55:18;99125.28;;;10.09;100.00
43818;BME280;29868;47.360;18.984;2023-03-14T23:57:44;99145.19;;;10.09;100.00
